Terminal Aerodrome Forecast
Issued by NWS Albany, NY

Home | Current Version | Previous Version | Text Only | Print | Product List | Glossary On
Versions: 1 2 3 4 5 6 7 8 9 10 11 12
000
FTUS41 KALY 270521
TAFPOU
TAF
KPOU 270521Z 2706/2806 33005KT P6SM BKN070
     FM271500 33010G18KT P6SM VCSH OVC050
     FM280000 33006KT P6SM VCSH BKN030=

USA.gov is the U.S. government's official web portal to all federal, state and local government web resources and services.